sensor_id;sensor_type;location;lat;lon;timestamp;pressure;altitude;pressure_sealevel;temperature;humidity
21153;BME280;10734;44.792;20.482;2022-08-21T00:00:23;99287.78;;;20.78;100.00
21153;BME280;10734;44.792;20.482;2022-08-21T00:02:55;99288.53;;;20.85;100.00
21153;BME280;10734;44.792;20.482;2022-08-21T00:05:24;99291.13;;;20.80;100.00
21153;BME280;10734;44.792;20.482;2022-08-21T00:07:53;99300.41;;;20.79;100.00
21153;BME280;10734;44.792;20.482;2022-08-21T00:10:22;99298.47;;;20.68;100.00
21153;BME280;10734;44.792;20.482;2022-08-21T00:12:50;99291.88;;;20.57;100.00
21153;BME280;10734;44.792;20.482;2022-08-21T00:15:22;99297.59;;;20.55;100.00
21153;BME280;10734;44.792;20.482;2022-08-21T00:17:51;99300.31;;;20.55;100.00
21153;BME280;10734;44.792;20.482;2022-08-21T00:20:19;99296.06;;;20.59;100.00
21153;BME280;10734;44.792;20.482;2022-08-21T00:22:47;99299.19;;;20.75;100.00
21153;BME280;10734;44.792;20.482;2022-08-21T00:25:16;99291.25;;;20.85;100.00
21153;BME280;10734;44.792;20.482;2022-08-21T00:27:46;99293.53;;;20.88;100.00
21153;BME280;10734;44.792;20.482;2022-08-21T00:30:16;99299.09;;;20.81;100.00
21153;BME280;10734;44.792;20.482;2022-08-21T00:32:51;99307.28;;;20.70;100.00
21153;BME280;10734;44.792;20.482;2022-08-21T00:35:23;99300.31;;;20.55;100.00
21153;BME280;10734;44.792;20.482;2022-08-21T00:37:52;99297.94;;;20.47;100.00
21153;BME280;10734;44.792;20.482;2022-08-21T00:40:43;99296.47;;;20.33;100.00
21153;BME280;10734;44.792;20.482;2022-08-21T00:43:15;99310.94;;;20.21;100.00
21153;BME280;10734;44.792;20.482;2022-08-21T00:45:44;99311.09;;;20.08;100.00
21153;BME280;10734;44.792;20.482;2022-08-21T00:48:12;99310.38;;;20.01;100.00
21153;BME280;10734;44.792;20.482;2022-08-21T00:50:44;99305.84;;;19.95;100.00
21153;BME280;10734;44.792;20.482;2022-08-21T00:53:12;99314.09;;;19.88;100.00
21153;BME280;10734;44.792;20.482;2022-08-21T00:55:41;99310.00;;;19.79;100.00
21153;BME280;10734;44.792;20.482;2022-08-21T00:58:13;99319.06;;;19.79;100.00
21153;BME280;10734;44.792;20.482;2022-08-21T01:00:46;99309.03;;;19.73;100.00
21153;BME280;10734;44.792;20.482;2022-08-21T01:03:23;99318.25;;;19.72;100.00
21153;BME280;10734;44.792;20.482;2022-08-21T01:05:52;99306.13;;;19.68;100.00
21153;BME280;10734;44.792;20.482;2022-08-21T01:08:21;99314.63;;;19.60;100.00
21153;BME280;10734;44.792;20.482;2022-08-21T01:10:52;99300.84;;;19.54;100.00
21153;BME280;10734;44.792;20.482;2022-08-21T01:13:23;99301.75;;;19.48;100.00
21153;BME280;10734;44.792;20.482;2022-08-21T01:16:02;99299.78;;;19.37;100.00
21153;BME280;10734;44.792;20.482;2022-08-21T01:18:31;99302.94;;;19.15;100.00
21153;BME280;10734;44.792;20.482;2022-08-21T01:21:26;99293.81;;;19.03;100.00
21153;BME280;10734;44.792;20.482;2022-08-21T01:23:56;99289.28;;;18.97;100.00
21153;BME280;10734;44.792;20.482;2022-08-21T01:26:27;99290.81;;;19.11;100.00
21153;BME280;10734;44.792;20.482;2022-08-21T01:32:12;99284.44;;;19.17;100.00
21153;BME280;10734;44.792;20.482;2022-08-21T01:34:44;99286.56;;;19.15;100.00
21153;BME280;10734;44.792;20.482;2022-08-21T01:37:12;99283.09;;;19.27;100.00
21153;BME280;10734;44.792;20.482;2022-08-21T01:39:45;99271.13;;;19.46;100.00
21153;BME280;10734;44.792;20.482;2022-08-21T01:42:13;99269.44;;;19.45;100.00
21153;BME280;10734;44.792;20.482;2022-08-21T01:44:41;99271.72;;;19.30;100.00
21153;BME280;10734;44.792;20.482;2022-08-21T01:47:11;99277.63;;;19.27;100.00
21153;BME280;10734;44.792;20.482;2022-08-21T01:49:43;99277.31;;;19.16;100.00
21153;BME280;10734;44.792;20.482;2022-08-21T01:52:11;99272.13;;;18.90;100.00
21153;BME280;10734;44.792;20.482;2022-08-21T01:54:42;99275.13;;;18.81;100.00
21153;BME280;10734;44.792;20.482;2022-08-21T01:57:11;99268.88;;;18.74;100.00
21153;BME280;10734;44.792;20.482;2022-08-21T01:59:39;99274.78;;;18.71;100.00
21153;BME280;10734;44.792;20.482;2022-08-21T02:02:07;99278.28;;;18.53;100.00
21153;BME280;10734;44.792;20.482;2022-08-21T02:04:35;99266.22;;;18.42;100.00
21153;BME280;10734;44.792;20.482;2022-08-21T02:07:03;99256.06;;;18.49;100.00
21153;BME280;10734;44.792;20.482;2022-08-21T02:09:35;99260.53;;;18.69;100.00
21153;BME280;10734;44.792;20.482;2022-08-21T02:12:06;99258.56;;;18.58;100.00
21153;BME280;10734;44.792;20.482;2022-08-21T02:14:35;99252.97;;;18.71;100.00
21153;BME280;10734;44.792;20.482;2022-08-21T02:17:04;99253.09;;;18.58;100.00
21153;BME280;10734;44.792;20.482;2022-08-21T02:19:37;99245.09;;;18.63;100.00
21153;BME280;10734;44.792;20.482;2022-08-21T02:22:08;99250.63;;;18.49;100.00
21153;BME280;10734;44.792;20.482;2022-08-21T02:24:37;99244.03;;;18.39;100.00
21153;BME280;10734;44.792;20.482;2022-08-21T02:27:23;99247.88;;;18.31;100.00
21153;BME280;10734;44.792;20.482;2022-08-21T02:29:55;99249.19;;;18.22;100.00
21153;BME280;10734;44.792;20.482;2022-08-21T02:32:22;99250.06;;;18.16;100.00
21153;BME280;10734;44.792;20.482;2022-08-21T02:34:54;99250.66;;;18.18;100.00
21153;BME280;10734;44.792;20.482;2022-08-21T02:37:23;99255.41;;;18.29;100.00
21153;BME280;10734;44.792;20.482;2022-08-21T02:39:51;99258.13;;;18.29;100.00
21153;BME280;10734;44.792;20.482;2022-08-21T02:42:19;99256.88;;;18.31;100.00
21153;BME280;10734;44.792;20.482;2022-08-21T02:44:49;99245.91;;;18.38;100.00
21153;BME280;10734;44.792;20.482;2022-08-21T02:47:19;99243.97;;;18.45;100.00
21153;BME280;10734;44.792;20.482;2022-08-21T02:49:46;99251.53;;;18.43;100.00
21153;BME280;10734;44.792;20.482;2022-08-21T02:52:14;99262.88;;;18.40;100.00
21153;BME280;10734;44.792;20.482;2022-08-21T02:54:42;99249.50;;;18.32;100.00
21153;BME280;10734;44.792;20.482;2022-08-21T02:57:09;99250.75;;;18.36;100.00
21153;BME280;10734;44.792;20.482;2022-08-21T02:59:37;99246.47;;;18.47;100.00
21153;BME280;10734;44.792;20.482;2022-08-21T03:02:06;99240.69;;;18.37;100.00
21153;BME280;10734;44.792;20.482;2022-08-21T03:04:33;99244.50;;;18.29;100.00
21153;BME280;10734;44.792;20.482;2022-08-21T03:07:02;99228.16;;;18.29;100.00
21153;BME280;10734;44.792;20.482;2022-08-21T03:09:32;99243.75;;;18.22;100.00
21153;BME280;10734;44.792;20.482;2022-08-21T03:12:00;99235.38;;;18.17;100.00
21153;BME280;10734;44.792;20.482;2022-08-21T03:14:27;99231.53;;;18.31;100.00
21153;BME280;10734;44.792;20.482;2022-08-21T03:16:55;99235.66;;;18.40;100.00
21153;BME280;10734;44.792;20.482;2022-08-21T03:19:23;99232.94;;;18.59;100.00
21153;BME280;10734;44.792;20.482;2022-08-21T03:21:51;99241.75;;;18.61;100.00
21153;BME280;10734;44.792;20.482;2022-08-21T03:24:19;99242.06;;;18.71;100.00
21153;BME280;10734;44.792;20.482;2022-08-21T03:26:48;99241.09;;;18.91;100.00
21153;BME280;10734;44.792;20.482;2022-08-21T03:29:17;99237.53;;;18.83;100.00
21153;BME280;10734;44.792;20.482;2022-08-21T03:31:45;99243.44;;;18.80;100.00
21153;BME280;10734;44.792;20.482;2022-08-21T03:34:13;99243.03;;;18.58;100.00
21153;BME280;10734;44.792;20.482;2022-08-21T03:36:41;99239.28;;;18.53;100.00
21153;BME280;10734;44.792;20.482;2022-08-21T03:39:11;99235.13;;;18.50;100.00
21153;BME280;10734;44.792;20.482;2022-08-21T03:41:39;99240.19;;;18.46;100.00
21153;BME280;10734;44.792;20.482;2022-08-21T03:44:06;99234.72;;;18.46;100.00
21153;BME280;10734;44.792;20.482;2022-08-21T03:46:34;99229.75;;;18.43;100.00
21153;BME280;10734;44.792;20.482;2022-08-21T03:49:04;99231.41;;;18.44;100.00
21153;BME280;10734;44.792;20.482;2022-08-21T03:51:31;99229.75;;;18.43;100.00
21153;BME280;10734;44.792;20.482;2022-08-21T03:54:00;99237.66;;;18.45;100.00
21153;BME280;10734;44.792;20.482;2022-08-21T03:56:27;99238.97;;;18.42;100.00
21153;BME280;10734;44.792;20.482;2022-08-21T03:58:55;99240.69;;;18.37;100.00
21153;BME280;10734;44.792;20.482;2022-08-21T04:01:22;99236.53;;;18.34;100.00
21153;BME280;10734;44.792;20.482;2022-08-21T04:03:51;99242.28;;;18.44;100.00
21153;BME280;10734;44.792;20.482;2022-08-21T04:06:19;99235.28;;;18.30;100.00
21153;BME280;10734;44.792;20.482;2022-08-21T04:08:47;99237.84;;;18.25;100.00
21153;BME280;10734;44.792;20.482;2022-08-21T04:11:15;99237.28;;;18.41;100.00
21153;BME280;10734;44.792;20.482;2022-08-21T04:13:44;99241.56;;;18.56;100.00
21153;BME280;10734;44.792;20.482;2022-08-21T04:16:13;99240.97;;;18.54;100.00
21153;BME280;10734;44.792;20.482;2022-08-21T04:18:40;99241.75;;;18.61;100.00
21153;BME280;10734;44.792;20.482;2022-08-21T04:21:08;99248.25;;;18.60;100.00
21153;BME280;10734;44.792;20.482;2022-08-21T04:23:38;99248.84;;;18.62;100.00
21153;BME280;10734;44.792;20.482;2022-08-21T04:26:06;99244.91;;;18.58;100.00
21153;BME280;10734;44.792;20.482;2022-08-21T04:28:34;99243.84;;;18.59;100.00
21153;BME280;10734;44.792;20.482;2022-08-21T04:31:02;99245.53;;;18.60;100.00
21153;BME280;10734;44.792;20.482;2022-08-21T04:33:30;99247.66;;;18.58;100.00
21153;BME280;10734;44.792;20.482;2022-08-21T04:35:57;99252.91;;;18.53;100.00
21153;BME280;10734;44.792;20.482;2022-08-21T04:38:25;99255.63;;;18.53;100.00
21153;BME280;10734;44.792;20.482;2022-08-21T04:41:02;99257.97;;;18.49;100.00
21153;BME280;10734;44.792;20.482;2022-08-21T04:43:30;99255.63;;;18.53;100.00
21153;BME280;10734;44.792;20.482;2022-08-21T04:45:57;99263.22;;;18.50;100.00
21153;BME280;10734;44.792;20.482;2022-08-21T04:48:27;99258.19;;;18.47;100.00
21153;BME280;10734;44.792;20.482;2022-08-21T04:51:15;99250.41;;;18.51;100.00
21153;BME280;10734;44.792;20.482;2022-08-21T04:58:56;99260.78;;;18.67;100.00
21153;BME280;10734;44.792;20.482;2022-08-21T05:01:27;99263.88;;;18.71;100.00
21153;BME280;10734;44.792;20.482;2022-08-21T05:04:00;99262.25;;;18.63;100.00
21153;BME280;10734;44.792;20.482;2022-08-21T05:06:31;99273.44;;;18.80;100.00
21153;BME280;10734;44.792;20.482;2022-08-21T05:09:01;99275.03;;;18.95;100.00
21153;BME280;10734;44.792;20.482;2022-08-21T05:11:30;99275.47;;;18.92;100.00
21153;BME280;10734;44.792;20.482;2022-08-21T05:13:58;99268.06;;;19.17;100.00
21153;BME280;10734;44.792;20.482;2022-08-21T05:16:25;99267.94;;;19.31;100.00
21153;BME280;10734;44.792;20.482;2022-08-21T05:19:09;99267.19;;;19.42;100.00
21153;BME280;10734;44.792;20.482;2022-08-21T05:21:41;99265.94;;;19.56;100.00
21153;BME280;10734;44.792;20.482;2022-08-21T05:24:10;99271.41;;;19.56;100.00
21153;BME280;10734;44.792;20.482;2022-08-21T05:26:39;99277.63;;;19.45;100.00
21153;BME280;10734;44.792;20.482;2022-08-21T05:29:15;99278.69;;;19.44;100.00
21153;BME280;10734;44.792;20.482;2022-08-21T05:31:46;99273.84;;;19.28;100.00
21153;BME280;10734;44.792;20.482;2022-08-21T05:34:17;99274.31;;;19.25;100.00
21153;BME280;10734;44.792;20.482;2022-08-21T05:36:48;99273.84;;;19.28;100.00
21153;BME280;10734;44.792;20.482;2022-08-21T05:39:16;99273.84;;;19.28;100.00
21153;BME280;10734;44.792;20.482;2022-08-21T05:41:44;99279.09;;;19.48;100.00
21153;BME280;10734;44.792;20.482;2022-08-21T05:44:14;99270.50;;;19.63;100.00
21153;BME280;10734;44.792;20.482;2022-08-21T05:46:42;99275.03;;;19.69;100.00
21153;BME280;10734;44.792;20.482;2022-08-21T05:49:11;99272.31;;;19.69;100.00
21153;BME280;10734;44.792;20.482;2022-08-21T05:51:40;99269.59;;;19.69;100.00
21153;BME280;10734;44.792;20.482;2022-08-21T05:54:08;99268.53;;;19.51;100.00
21153;BME280;10734;44.792;20.482;2022-08-21T05:56:37;99269.91;;;19.42;100.00
21153;BME280;10734;44.792;20.482;2022-08-21T05:59:04;99269.13;;;19.35;100.00
21153;BME280;10734;44.792;20.482;2022-08-21T06:01:36;99270.50;;;19.26;100.00
21153;BME280;10734;44.792;20.482;2022-08-21T06:04:04;99277.75;;;19.13;100.00
21153;BME280;10734;44.792;20.482;2022-08-21T06:06:34;99270.25;;;19.09;100.00
21153;BME280;10734;44.792;20.482;2022-08-21T06:09:05;99269.44;;;19.27;100.00
21153;BME280;10734;44.792;20.482;2022-08-21T06:11:35;99271.88;;;19.53;100.00
21153;BME280;10734;44.792;20.482;2022-08-21T06:14:03;99276.56;;;19.83;100.00
21153;BME280;10734;44.792;20.482;2022-08-21T06:16:33;99274.72;;;19.96;100.00
21153;BME280;10734;44.792;20.482;2022-08-21T06:19:01;99285.59;;;19.84;100.00
21153;BME280;10734;44.792;20.482;2022-08-21T06:21:28;99277.09;;;19.73;100.00
21153;BME280;10734;44.792;20.482;2022-08-21T06:23:56;99283.81;;;19.71;100.00
21153;BME280;10734;44.792;20.482;2022-08-21T06:26:23;99275.28;;;19.86;100.00
21153;BME280;10734;44.792;20.482;2022-08-21T06:28:51;99278.22;;;20.15;100.00
21153;BME280;10734;44.792;20.482;2022-08-21T06:31:22;99280.53;;;20.29;100.00
21153;BME280;10734;44.792;20.482;2022-08-21T06:33:52;99279.03;;;20.34;100.00
21153;BME280;10734;44.792;20.482;2022-08-21T06:36:23;99278.38;;;20.20;100.00
21153;BME280;10734;44.792;20.482;2022-08-21T06:38:51;99277.38;;;20.44;100.00
21153;BME280;10734;44.792;20.482;2022-08-21T06:41:20;99285.34;;;20.46;100.00
21153;BME280;10734;44.792;20.482;2022-08-21T06:43:51;99285.25;;;20.22;100.00
21153;BME280;10734;44.792;20.482;2022-08-21T06:46:18;99273.63;;;20.15;100.00
21153;BME280;10734;44.792;20.482;2022-08-21T06:48:47;99279.03;;;20.45;100.00
21153;BME280;10734;44.792;20.482;2022-08-21T06:51:17;99281.53;;;20.47;100.00
21153;BME280;10734;44.792;20.482;2022-08-21T06:53:49;99276.81;;;20.54;100.00
21153;BME280;10734;44.792;20.482;2022-08-21T06:56:17;99271.88;;;20.33;100.00
21153;BME280;10734;44.792;20.482;2022-08-21T06:58:46;99271.53;;;20.41;100.00
21153;BME280;10734;44.792;20.482;2022-08-21T07:01:14;99272.69;;;20.21;100.00
21153;BME280;10734;44.792;20.482;2022-08-21T07:03:42;99280.22;;;20.50;100.00
21153;BME280;10734;44.792;20.482;2022-08-21T07:06:10;99271.53;;;20.41;100.00
21153;BME280;10734;44.792;20.482;2022-08-21T07:08:38;99271.44;;;20.59;100.00
21153;BME280;10734;44.792;20.482;2022-08-21T07:11:11;99277.44;;;20.68;100.00
21153;BME280;10734;44.792;20.482;2022-08-21T07:13:39;99277.97;;;20.58;100.00
21153;BME280;10734;44.792;20.482;2022-08-21T07:16:06;99278.19;;;20.45;100.00
21153;BME280;10734;44.792;20.482;2022-08-21T07:18:33;99273.94;;;20.49;100.00
21153;BME280;10734;44.792;20.482;2022-08-21T07:21:01;99270.88;;;20.57;100.00
21153;BME280;10734;44.792;20.482;2022-08-21T07:23:33;99270.19;;;20.74;100.00
21153;BME280;10734;44.792;20.482;2022-08-21T07:26:03;99274.69;;;20.80;100.00
21153;BME280;10734;44.792;20.482;2022-08-21T07:28:31;99273.81;;;20.56;100.00
21153;BME280;10734;44.792;20.482;2022-08-21T07:31:00;99270.81;;;20.34;100.00
21153;BME280;10734;44.792;20.482;2022-08-21T07:33:30;99268.22;;;20.39;100.00
21153;BME280;10734;44.792;20.482;2022-08-21T07:36:01;99267.00;;;20.35;100.00
21153;BME280;10734;44.792;20.482;2022-08-21T07:38:30;99269.59;;;20.29;100.00
21153;BME280;10734;44.792;20.482;2022-08-21T07:41:12;99267.84;;;20.35;100.00
21153;BME280;10734;44.792;20.482;2022-08-21T07:43:44;99268.38;;;20.56;100.00
21153;BME280;10734;44.792;20.482;2022-08-21T07:46:14;99261.03;;;20.68;100.00
21153;BME280;10734;44.792;20.482;2022-08-21T07:48:42;99263.28;;;20.83;100.00
21153;BME280;10734;44.792;20.482;2022-08-21T07:51:13;99263.06;;;20.96;100.00
21153;BME280;10734;44.792;20.482;2022-08-21T07:53:50;99265.91;;;21.01;100.00
21153;BME280;10734;44.792;20.482;2022-08-21T07:56:29;99258.53;;;21.14;100.00
21153;BME280;10734;44.792;20.482;2022-08-21T07:58:58;99269.34;;;21.21;100.00
21153;BME280;10734;44.792;20.482;2022-08-21T08:01:26;99264.72;;;21.21;100.00
21153;BME280;10734;44.792;20.482;2022-08-21T08:03:56;99262.31;;;21.13;100.00
21153;BME280;10734;44.792;20.482;2022-08-21T08:06:23;99264.00;;;21.14;100.00
21153;BME280;10734;44.792;20.482;2022-08-21T08:08:50;99264.00;;;21.14;100.00
21153;BME280;10734;44.792;20.482;2022-08-21T08:11:17;99270.09;;;21.04;100.00
21153;BME280;10734;44.792;20.482;2022-08-21T08:13:46;99261.03;;;21.15;100.00
21153;BME280;10734;44.792;20.482;2022-08-21T08:16:14;99261.03;;;21.27;100.00
21153;BME280;10734;44.792;20.482;2022-08-21T08:18:41;99264.81;;;21.26;100.00
21153;BME280;10734;44.792;20.482;2022-08-21T08:21:09;99254.47;;;21.28;100.00
21153;BME280;10734;44.792;20.482;2022-08-21T08:23:37;99260.06;;;21.33;100.00
21153;BME280;10734;44.792;20.482;2022-08-21T08:26:04;99260.16;;;21.39;100.00
21153;BME280;10734;44.792;20.482;2022-08-21T08:28:32;99254.47;;;21.52;100.00
21153;BME280;10734;44.792;20.482;2022-08-21T08:30:59;99258.97;;;21.58;100.00
21153;BME280;10734;44.792;20.482;2022-08-21T08:33:29;99257.53;;;21.44;100.00
21153;BME280;10734;44.792;20.482;2022-08-21T08:35:56;99253.50;;;21.58;100.00
21153;BME280;10734;44.792;20.482;2022-08-21T08:38:24;99251.34;;;21.60;100.00
21153;BME280;10734;44.792;20.482;2022-08-21T08:43:37;99249.56;;;21.42;100.00
21153;BME280;10734;44.792;20.482;2022-08-21T08:46:13;99247.31;;;21.51;100.00
21153;BME280;10734;44.792;20.482;2022-08-21T08:48:53;99258.28;;;21.51;100.00
21153;BME280;10734;44.792;20.482;2022-08-21T08:52:00;99251.72;;;21.40;100.00
21153;BME280;10734;44.792;20.482;2022-08-21T08:57:24;99244.00;;;21.49;100.00
21153;BME280;10734;44.792;20.482;2022-08-21T08:59:55;99250.41;;;21.43;100.00
21153;BME280;10734;44.792;20.482;2022-08-21T09:02:31;99247.78;;;21.48;100.00
21153;BME280;10734;44.792;20.482;2022-08-21T09:05:00;99245.91;;;21.36;100.00
21153;BME280;10734;44.792;20.482;2022-08-21T09:10:18;99240.03;;;21.45;100.00
21153;BME280;10734;44.792;20.482;2022-08-21T09:24:02;99222.59;;;22.03;100.00
21153;BME280;10734;44.792;20.482;2022-08-21T09:26:47;99228.22;;;22.14;100.00
21153;BME280;10734;44.792;20.482;2022-08-21T09:29:23;99224.25;;;22.21;100.00
21153;BME280;10734;44.792;20.482;2022-08-21T09:31:50;99225.75;;;22.29;100.00
21153;BME280;10734;44.792;20.482;2022-08-21T09:34:27;99224.59;;;22.25;100.00
21153;BME280;10734;44.792;20.482;2022-08-21T09:36:59;99224.44;;;22.15;100.00
21153;BME280;10734;44.792;20.482;2022-08-21T09:39:32;99218.44;;;22.18;100.00
21153;BME280;10734;44.792;20.482;2022-08-21T09:42:09;99222.41;;;22.10;100.00
21153;BME280;10734;44.792;20.482;2022-08-21T09:44:40;99222.59;;;22.03;100.00
21153;BME280;10734;44.792;20.482;2022-08-21T09:47:12;99216.66;;;21.95;100.00
21153;BME280;10734;44.792;20.482;2022-08-21T09:49:53;99214.13;;;21.76;100.00
21153;BME280;10734;44.792;20.482;2022-08-21T09:52:24;99212.69;;;21.73;100.00
21153;BME280;10734;44.792;20.482;2022-08-21T09:54:56;99209.16;;;21.61;100.00
21153;BME280;10734;44.792;20.482;2022-08-21T09:57:30;99213.63;;;21.50;100.00
21153;BME280;10734;44.792;20.482;2022-08-21T10:00:27;99209.03;;;21.27;100.00
21153;BME280;10734;44.792;20.482;2022-08-21T10:03:20;99217.09;;;21.22;100.00
21153;BME280;10734;44.792;20.482;2022-08-21T10:06:04;99207.41;;;21.03;100.00
21153;BME280;10734;44.792;20.482;2022-08-21T10:08:39;99209.66;;;21.06;100.00
21153;BME280;10734;44.792;20.482;2022-08-21T10:11:28;99216.19;;;21.05;100.00
21153;BME280;10734;44.792;20.482;2022-08-21T10:14:05;99202.41;;;20.99;100.00
21153;BME280;10734;44.792;20.482;2022-08-21T10:16:55;99207.03;;;21.11;100.00
21153;BME280;10734;44.792;20.482;2022-08-21T10:28:06;99214.31;;;20.93;100.00
21153;BME280;10734;44.792;20.482;2022-08-21T10:31:00;99214.78;;;20.90;100.00
21153;BME280;10734;44.792;20.482;2022-08-21T10:36:32;99212.16;;;20.95;100.00
21153;BME280;10734;44.792;20.482;2022-08-21T10:39:43;99224.91;;;20.90;100.00
21153;BME280;10734;44.792;20.482;2022-08-21T10:54:05;99258.31;;;20.26;100.00
21153;BME280;10734;44.792;20.482;2022-08-21T10:56:40;99253.03;;;20.13;100.00
21153;BME280;10734;44.792;20.482;2022-08-21T10:59:26;99253.16;;;20.18;100.00
21153;BME280;10734;44.792;20.482;2022-08-21T11:02:27;99246.00;;;20.05;100.00
21153;BME280;10734;44.792;20.482;2022-08-21T11:05:15;99236.41;;;20.14;100.00
21153;BME280;10734;44.792;20.482;2022-08-21T11:10:40;99240.41;;;20.00;100.00
21153;BME280;10734;44.792;20.482;2022-08-21T11:13:40;99236.16;;;19.55;100.00
21153;BME280;10734;44.792;20.482;2022-08-21T11:16:48;99246.41;;;19.41;100.00
21153;BME280;10734;44.792;20.482;2022-08-21T11:21:55;99247.63;;;19.45;100.00
21153;BME280;10734;44.792;20.482;2022-08-21T11:24:33;99240.78;;;19.54;100.00
21153;BME280;10734;44.792;20.482;2022-08-21T11:27:09;99238.59;;;19.45;100.00
21153;BME280;10734;44.792;20.482;2022-08-21T11:29:44;99237.44;;;19.52;100.00
21153;BME280;10734;44.792;20.482;2022-08-21T11:35:02;99239.56;;;19.50;100.00
21153;BME280;10734;44.792;20.482;2022-08-21T11:40:42;99241.41;;;19.38;100.00
21153;BME280;10734;44.792;20.482;2022-08-21T11:45:51;99239.75;;;19.37;100.00
21153;BME280;10734;44.792;20.482;2022-08-21T11:48:37;99232.16;;;19.20;100.00
21153;BME280;10734;44.792;20.482;2022-08-21T11:51:12;99233.53;;;19.11;100.00
21153;BME280;10734;44.792;20.482;2022-08-21T11:56:41;99238.22;;;19.22;100.00
21153;BME280;10734;44.792;20.482;2022-08-21T11:59:14;99231.84;;;19.29;100.00
21153;BME280;10734;44.792;20.482;2022-08-21T12:01:48;99232.31;;;19.26;100.00
21153;BME280;10734;44.792;20.482;2022-08-21T12:06:44;99231.63;;;19.49;100.00
21153;BME280;10734;44.792;20.482;2022-08-21T12:09:31;99232.75;;;19.41;100.00
21153;BME280;10734;44.792;20.482;2022-08-21T12:14:43;99221.81;;;19.60;100.00
21153;BME280;10734;44.792;20.482;2022-08-21T12:17:21;99227.13;;;19.73;100.00
21153;BME280;10734;44.792;20.482;2022-08-21T12:22:55;99224.44;;;19.36;100.00
21153;BME280;10734;44.792;20.482;2022-08-21T12:25:40;99219.56;;;19.38;100.00
21153;BME280;10734;44.792;20.482;2022-08-21T12:28:10;99212.38;;;19.44;100.00
21153;BME280;10734;44.792;20.482;2022-08-21T12:30:41;99214.31;;;19.55;100.00
21153;BME280;10734;44.792;20.482;2022-08-21T12:33:20;99231.91;;;19.59;100.00
21153;BME280;10734;44.792;20.482;2022-08-21T12:35:48;99211.56;;;19.43;100.00
21153;BME280;10734;44.792;20.482;2022-08-21T12:38:29;99220.06;;;19.65;100.00
21153;BME280;10734;44.792;20.482;2022-08-21T12:41:04;99222.41;;;19.62;100.00
21153;BME280;10734;44.792;20.482;2022-08-21T12:43:38;99215.13;;;19.55;100.00
21153;BME280;10734;44.792;20.482;2022-08-21T12:46:18;99222.00;;;19.46;100.00
21153;BME280;10734;44.792;20.482;2022-08-21T12:48:54;99226.06;;;19.55;100.00
21153;BME280;10734;44.792;20.482;2022-08-21T12:51:29;99235.78;;;19.51;100.00
21153;BME280;10734;44.792;20.482;2022-08-21T12:53:59;99231.97;;;19.52;100.00
21153;BME280;10734;44.792;20.482;2022-08-21T12:56:31;99231.94;;;19.71;100.00
21153;BME280;10734;44.792;20.482;2022-08-21T12:59:10;99238.50;;;19.70;100.00
21153;BME280;10734;44.792;20.482;2022-08-21T13:01:38;99240.03;;;19.47;100.00
21153;BME280;10734;44.792;20.482;2022-08-21T13:04:13;99234.56;;;19.47;100.00
21153;BME280;10734;44.792;20.482;2022-08-21T13:06:47;99237.44;;;19.52;100.00
21153;BME280;10734;44.792;20.482;2022-08-21T13:09:18;99231.81;;;19.66;100.00
21153;BME280;10734;44.792;20.482;2022-08-21T13:11:47;99237.28;;;19.66;100.00
21153;BME280;10734;44.792;20.482;2022-08-21T13:16:54;99242.22;;;19.57;100.00
21153;BME280;10734;44.792;20.482;2022-08-21T13:19:22;99246.97;;;19.62;100.00
21153;BME280;10734;44.792;20.482;2022-08-21T13:21:50;99245.13;;;19.74;100.00
21153;BME280;10734;44.792;20.482;2022-08-21T13:27:23;99247.97;;;19.86;100.00
21153;BME280;10734;44.792;20.482;2022-08-21T13:30:19;99243.63;;;19.97;100.00
21153;BME280;10734;44.792;20.482;2022-08-21T13:32:51;99242.69;;;20.03;100.00
21153;BME280;10734;44.792;20.482;2022-08-21T13:35:26;99244.25;;;19.80;100.00
21153;BME280;10734;44.792;20.482;2022-08-21T13:37:53;99243.72;;;19.90;100.00
21153;BME280;10734;44.792;20.482;2022-08-21T13:40:30;99235.44;;;19.97;100.00
21153;BME280;10734;44.792;20.482;2022-08-21T13:42:59;99240.09;;;20.08;100.00
21153;BME280;10734;44.792;20.482;2022-08-21T13:45:31;99232.78;;;20.44;100.00
21153;BME280;10734;44.792;20.482;2022-08-21T13:48:00;99228.28;;;20.38;100.00
21153;BME280;10734;44.792;20.482;2022-08-21T13:50:40;99221.63;;;20.45;100.00
21153;BME280;10734;44.792;20.482;2022-08-21T13:53:26;99228.75;;;20.35;100.00
21153;BME280;10734;44.792;20.482;2022-08-21T13:55:54;99231.81;;;20.26;100.00
21153;BME280;10734;44.792;20.482;2022-08-21T13:58:29;99223.69;;;20.08;100.00
21153;BME280;10734;44.792;20.482;2022-08-21T14:00:58;99219.91;;;20.09;100.00
21153;BME280;10734;44.792;20.482;2022-08-21T14:03:31;99230.38;;;19.82;100.00
21153;BME280;10734;44.792;20.482;2022-08-21T14:05:58;99230.91;;;19.72;100.00
21153;BME280;10734;44.792;20.482;2022-08-21T14:08:33;99219.16;;;19.71;100.00
21153;BME280;10734;44.792;20.482;2022-08-21T14:11:03;99226.22;;;19.79;100.00
21153;BME280;10734;44.792;20.482;2022-08-21T14:13:44;99223.63;;;19.84;100.00
21153;BME280;10734;44.792;20.482;2022-08-21T14:16:24;99233.16;;;19.75;100.00
21153;BME280;10734;44.792;20.482;2022-08-21T14:21:44;99221.06;;;19.52;100.00
21153;BME280;10734;44.792;20.482;2022-08-21T14:24:26;99231.94;;;19.40;100.00
21153;BME280;10734;44.792;20.482;2022-08-21T14:26:57;99221.16;;;19.46;100.00
21153;BME280;10734;44.792;20.482;2022-08-21T14:29:41;99222.63;;;19.60;100.00